sensor_id;sensor_type;location;lat;lon;timestamp;pressure;altitude;pressure_sealevel;temperature;humidity
51849;BME280;38952;51.090;-1.832;2022-12-22T00:02:20;99097.09;;;7.88;100.00
51849;BME280;38952;51.090;-1.832;2022-12-22T00:05:19;99112.28;;;7.94;100.00
51849;BME280;38952;51.090;-1.832;2022-12-22T00:08:04;99117.75;;;7.94;100.00
51849;BME280;38952;51.090;-1.832;2022-12-22T00:10:48;99112.84;;;7.91;100.00
51849;BME280;38952;51.090;-1.832;2022-12-22T00:13:33;99103.91;;;7.85;100.00
51849;BME280;38952;51.090;-1.832;2022-12-22T00:16:22;99091.19;;;7.70;100.00
51849;BME280;38952;51.090;-1.832;2022-12-22T00:19:12;99092.31;;;7.64;100.00
51849;BME280;38952;51.090;-1.832;2022-12-22T00:22:00;99097.25;;;7.57;100.00
51849;BME280;38952;51.090;-1.832;2022-12-22T00:24:45;99109.72;;;7.58;100.00
51849;BME280;38952;51.090;-1.832;2022-12-22T00:27:30;99122.25;;;7.64;100.00
51849;BME280;38952;51.090;-1.832;2022-12-22T00:30:15;99131.16;;;7.75;100.00
51849;BME280;38952;51.090;-1.832;2022-12-22T00:33:01;99155.34;;;7.86;100.00
51849;BME280;38952;51.090;-1.832;2022-12-22T00:35:45;99145.53;;;7.91;100.00
51849;BME280;38952;51.090;-1.832;2022-12-22T00:38:29;99145.00;;;7.83;100.00
51849;BME280;38952;51.090;-1.832;2022-12-22T00:41:13;99140.13;;;7.80;100.00
51849;BME280;38952;51.090;-1.832;2022-12-22T00:43:57;99142.84;;;7.80;100.00
51849;BME280;38952;51.090;-1.832;2022-12-22T00:46:43;99127.09;;;7.77;100.00
51849;BME280;38952;51.090;-1.832;2022-12-22T00:49:29;99131.16;;;7.75;100.00
51849;BME280;38952;51.090;-1.832;2022-12-22T00:52:15;99141.81;;;7.66;100.00
51849;BME280;38952;51.090;-1.832;2022-12-22T00:54:59;99144.56;;;7.61;100.00
51849;BME280;38952;51.090;-1.832;2022-12-22T00:57:43;99146.22;;;7.51;100.00
51849;BME280;38952;51.090;-1.832;2022-12-22T01:00:28;99147.06;;;7.47;100.00
51849;BME280;38952;51.090;-1.832;2022-12-22T01:03:11;99145.16;;;7.42;100.00
51849;BME280;38952;51.090;-1.832;2022-12-22T01:05:58;99157.13;;;7.46;100.00
51849;BME280;38952;51.090;-1.832;2022-12-22T01:08:42;99150.31;;;7.39;100.00
51849;BME280;38952;51.090;-1.832;2022-12-22T01:11:26;99136.19;;;7.37;100.00
51849;BME280;38952;51.090;-1.832;2022-12-22T01:14:11;99131.88;;;7.30;100.00
51849;BME280;38952;51.090;-1.832;2022-12-22T01:16:55;99135.94;;;7.23;100.00
51849;BME280;38952;51.090;-1.832;2022-12-22T01:19:39;99125.38;;;7.16;100.00
51849;BME280;38952;51.090;-1.832;2022-12-22T01:22:25;99132.44;;;7.17;100.00
51849;BME280;38952;51.090;-1.832;2022-12-22T01:25:12;99137.06;;;7.16;100.00
51849;BME280;38952;51.090;-1.832;2022-12-22T01:27:58;99143.06;;;7.19;100.00
51849;BME280;38952;51.090;-1.832;2022-12-22T01:30:43;99155.00;;;7.18;100.00
51849;BME280;38952;51.090;-1.832;2022-12-22T01:33:27;99161.28;;;7.13;100.00
51849;BME280;38952;51.090;-1.832;2022-12-22T01:36:10;99156.13;;;7.11;100.00
51849;BME280;38952;51.090;-1.832;2022-12-22T01:38:54;99149.59;;;7.07;100.00
51849;BME280;38952;51.090;-1.832;2022-12-22T01:41:38;99149.03;;;7.00;100.00
51849;BME280;38952;51.090;-1.832;2022-12-22T01:44:22;99158.84;;;6.96;100.00
51849;BME280;38952;51.090;-1.832;2022-12-22T01:47:36;99152.88;;;6.78;100.00
51849;BME280;38952;51.090;-1.832;2022-12-22T01:53:13;99135.75;;;6.47;100.00
51849;BME280;38952;51.090;-1.832;2022-12-22T01:55:58;99143.06;;;6.46;100.00
51849;BME280;38952;51.090;-1.832;2022-12-22T01:58:45;99144.41;;;6.39;100.00
51849;BME280;38952;51.090;-1.832;2022-12-22T02:01:31;99143.06;;;6.41;100.00
51849;BME280;38952;51.090;-1.832;2022-12-22T02:04:18;99143.06;;;6.41;100.00
51849;BME280;38952;51.090;-1.832;2022-12-22T02:13:32;99147.09;;;6.23;100.00
51849;BME280;38952;51.090;-1.832;2022-12-22T02:25:57;99164.47;;;6.12;100.00
51849;BME280;38952;51.090;-1.832;2022-12-22T02:28:43;99156.50;;;5.95;100.00
51849;BME280;38952;51.090;-1.832;2022-12-22T02:31:39;99170.56;;;5.87;100.00
51849;BME280;38952;51.090;-1.832;2022-12-22T02:34:23;99179.81;;;5.86;100.00
51849;BME280;38952;51.090;-1.832;2022-12-22T02:37:29;99196.91;;;5.86;100.00
51849;BME280;38952;51.090;-1.832;2022-12-22T02:40:49;99202.06;;;5.83;100.00
51849;BME280;38952;51.090;-1.832;2022-12-22T02:46:28;99204.72;;;5.77;100.00
51849;BME280;38952;51.090;-1.832;2022-12-22T02:49:21;99216.97;;;5.80;100.00
51849;BME280;38952;51.090;-1.832;2022-12-22T02:52:21;99221.00;;;5.77;100.00
51849;BME280;38952;51.090;-1.832;2022-12-22T02:55:06;99210.69;;;5.74;100.00
51849;BME280;38952;51.090;-1.832;2022-12-22T02:57:51;99218.78;;;5.69;100.00
51849;BME280;38952;51.090;-1.832;2022-12-22T03:00:36;99222.00;;;5.61;100.00
51849;BME280;38952;51.090;-1.832;2022-12-22T03:03:20;99229.00;;;5.52;100.00
51849;BME280;38952;51.090;-1.832;2022-12-22T03:06:04;99241.97;;;5.45;100.00
51849;BME280;38952;51.090;-1.832;2022-12-22T03:08:48;99250.03;;;5.34;100.00
51849;BME280;38952;51.090;-1.832;2022-12-22T03:11:35;99249.47;;;5.27;100.00
51849;BME280;38952;51.090;-1.832;2022-12-22T03:14:19;99235.25;;;5.15;100.00
51849;BME280;38952;51.090;-1.832;2022-12-22T03:17:03;99226.50;;;5.02;100.00
51849;BME280;38952;51.090;-1.832;2022-12-22T03:19:47;99207.69;;;4.90;100.00
51849;BME280;38952;51.090;-1.832;2022-12-22T03:22:31;99220.47;;;4.95;100.00
51849;BME280;38952;51.090;-1.832;2022-12-22T03:25:15;99217.69;;;4.85;100.00
51849;BME280;38952;51.090;-1.832;2022-12-22T03:28:08;99221.19;;;4.85;100.00
51849;BME280;38952;51.090;-1.832;2022-12-22T03:30:34;99232.13;;;4.96;100.00
51849;BME280;38952;51.090;-1.832;2022-12-22T03:33:00;99226.91;;;4.89;100.00
51849;BME280;38952;51.090;-1.832;2022-12-22T03:35:26;99219.88;;;4.88;100.00
51849;BME280;38952;51.090;-1.832;2022-12-22T03:37:51;99223.94;;;4.90;100.00
51849;BME280;38952;51.090;-1.832;2022-12-22T03:40:17;99225.28;;;4.88;100.00
51849;BME280;38952;51.090;-1.832;2022-12-22T03:42:42;99241.03;;;4.91;100.00
51849;BME280;38952;51.090;-1.832;2022-12-22T03:45:26;99240.94;;;4.81;100.00
51849;BME280;38952;51.090;-1.832;2022-12-22T03:48:10;99220.78;;;4.71;100.00
51849;BME280;38952;51.090;-1.832;2022-12-22T03:50:38;99241.97;;;4.75;100.00
51849;BME280;38952;51.090;-1.832;2022-12-22T03:53:04;99233.59;;;4.76;100.00
51849;BME280;38952;51.090;-1.832;2022-12-22T03:55:30;99224.16;;;4.57;100.00
51849;BME280;38952;51.090;-1.832;2022-12-22T03:57:55;99229.59;;;4.57;100.00
51849;BME280;38952;51.090;-1.832;2022-12-22T04:00:21;99219.72;;;4.45;100.00
51849;BME280;38952;51.090;-1.832;2022-12-22T04:02:49;99219.97;;;4.44;100.00
51849;BME280;38952;51.090;-1.832;2022-12-22T04:05:14;99228.09;;;4.44;100.00
51849;BME280;38952;51.090;-1.832;2022-12-22T04:07:53;99215.59;;;4.37;100.00
51849;BME280;38952;51.090;-1.832;2022-12-22T04:10:26;99244.81;;;4.35;100.00
51849;BME280;38952;51.090;-1.832;2022-12-22T04:13:10;99252.81;;;4.25;100.00
51849;BME280;38952;51.090;-1.832;2022-12-22T04:15:35;99247.84;;;4.17;100.00
51849;BME280;38952;51.090;-1.832;2022-12-22T04:18:01;99238.03;;;4.11;100.00
51849;BME280;38952;51.090;-1.832;2022-12-22T04:20:26;99226.25;;;4.00;100.00
51849;BME280;38952;51.090;-1.832;2022-12-22T04:23:02;99215.63;;;3.93;100.00
51849;BME280;38952;51.090;-1.832;2022-12-22T04:25:27;99214.50;;;3.89;100.00
51849;BME280;38952;51.090;-1.832;2022-12-22T04:27:53;99208.53;;;3.87;100.00
51849;BME280;38952;51.090;-1.832;2022-12-22T04:30:19;99227.59;;;3.97;100.00
51849;BME280;38952;51.090;-1.832;2022-12-22T04:32:47;99216.97;;;3.91;100.00
51849;BME280;38952;51.090;-1.832;2022-12-22T04:35:12;99210.75;;;3.90;100.00
51849;BME280;38952;51.090;-1.832;2022-12-22T04:37:40;99211.63;;;3.96;100.00
51849;BME280;38952;51.090;-1.832;2022-12-22T04:40:06;99201.09;;;3.99;100.00
51849;BME280;38952;51.090;-1.832;2022-12-22T04:42:32;99209.41;;;4.15;100.00
51849;BME280;38952;51.090;-1.832;2022-12-22T04:44:57;99193.19;;;4.15;100.00
51849;BME280;38952;51.090;-1.832;2022-12-22T04:47:26;99209.03;;;4.33;100.00
51849;BME280;38952;51.090;-1.832;2022-12-22T04:49:54;99193.84;;;4.27;100.00
51849;BME280;38952;51.090;-1.832;2022-12-22T04:52:20;99217.09;;;4.50;100.00
51849;BME280;38952;51.090;-1.832;2022-12-22T04:54:45;99216.38;;;4.60;100.00
51849;BME280;38952;51.090;-1.832;2022-12-22T04:57:11;99201.81;;;4.66;100.00
51849;BME280;38952;51.090;-1.832;2022-12-22T04:59:38;99194.84;;;4.76;100.00
51849;BME280;38952;51.090;-1.832;2022-12-22T05:02:04;99211.78;;;4.93;100.00
51849;BME280;38952;51.090;-1.832;2022-12-22T05:04:29;99212.16;;;5.07;100.00
51849;BME280;38952;51.090;-1.832;2022-12-22T05:06:55;99217.94;;;5.16;100.00
51849;BME280;38952;51.090;-1.832;2022-12-22T05:09:20;99220.13;;;5.24;100.00
51849;BME280;38952;51.090;-1.832;2022-12-22T05:11:45;99214.75;;;5.29;100.00
51849;BME280;38952;51.090;-1.832;2022-12-22T05:14:11;99217.53;;;5.39;100.00
51849;BME280;38952;51.090;-1.832;2022-12-22T05:16:36;99207.28;;;5.47;100.00
51849;BME280;38952;51.090;-1.832;2022-12-22T05:19:02;99210.84;;;5.57;100.00
51849;BME280;38952;51.090;-1.832;2022-12-22T05:21:27;99199.78;;;5.64;100.00
51849;BME280;38952;51.090;-1.832;2022-12-22T05:23:53;99194.38;;;5.64;100.00
51849;BME280;38952;51.090;-1.832;2022-12-22T05:26:18;99202.00;;;5.72;100.00
51849;BME280;38952;51.090;-1.832;2022-12-22T05:28:44;99198.19;;;5.73;100.00
51849;BME280;38952;51.090;-1.832;2022-12-22T05:31:16;99206.38;;;5.84;100.00
51849;BME280;38952;51.090;-1.832;2022-12-22T05:33:42;99201.53;;;5.91;100.00
51849;BME280;38952;51.090;-1.832;2022-12-22T05:36:07;99192.84;;;5.94;100.00
51849;BME280;38952;51.090;-1.832;2022-12-22T05:38:33;99205.91;;;5.97;100.00
51849;BME280;38952;51.090;-1.832;2022-12-22T05:40:58;99222.78;;;6.04;100.00
51849;BME280;38952;51.090;-1.832;2022-12-22T05:43:24;99197.81;;;6.07;100.00
51849;BME280;38952;51.090;-1.832;2022-12-22T05:45:49;99196.22;;;6.17;100.00
51849;BME280;38952;51.090;-1.832;2022-12-22T05:48:15;99191.38;;;6.24;100.00
51849;BME280;38952;51.090;-1.832;2022-12-22T05:50:41;99185.66;;;6.25;100.00
51849;BME280;38952;51.090;-1.832;2022-12-22T05:53:06;99164.75;;;6.21;100.00
51849;BME280;38952;51.090;-1.832;2022-12-22T05:55:32;99172.38;;;6.29;100.00
51849;BME280;38952;51.090;-1.832;2022-12-22T05:57:58;99172.66;;;6.38;100.00
51849;BME280;38952;51.090;-1.832;2022-12-22T06:00:27;99170.50;;;6.45;100.00
51849;BME280;38952;51.090;-1.832;2022-12-22T06:02:52;99168.06;;;6.43;100.00
51849;BME280;38952;51.090;-1.832;2022-12-22T06:05:18;99172.66;;;6.48;100.00
51849;BME280;38952;51.090;-1.832;2022-12-22T06:07:43;99162.38;;;6.50;100.00
51849;BME280;38952;51.090;-1.832;2022-12-22T06:10:09;99169.16;;;6.53;100.00
51849;BME280;38952;51.090;-1.832;2022-12-22T06:12:35;99153.69;;;6.53;100.00
51849;BME280;38952;51.090;-1.832;2022-12-22T06:15:03;99176.22;;;6.69;100.00
51849;BME280;38952;51.090;-1.832;2022-12-22T06:17:29;99162.94;;;6.68;100.00
51849;BME280;38952;51.090;-1.832;2022-12-22T06:19:54;99172.44;;;6.80;100.00
51849;BME280;38952;51.090;-1.832;2022-12-22T06:22:19;99156.41;;;6.74;100.00
51849;BME280;38952;51.090;-1.832;2022-12-22T06:24:45;99159.38;;;6.82;100.00
51849;BME280;38952;51.090;-1.832;2022-12-22T06:27:10;99149.59;;;6.87;100.00
51849;BME280;38952;51.090;-1.832;2022-12-22T06:29:40;99151.78;;;6.90;100.00
51849;BME280;38952;51.090;-1.832;2022-12-22T06:32:14;99145.81;;;6.98;100.00
51849;BME280;38952;51.090;-1.832;2022-12-22T06:34:39;99157.19;;;7.05;100.00
51849;BME280;38952;51.090;-1.832;2022-12-22T06:37:05;99135.44;;;6.95;100.00
51849;BME280;38952;51.090;-1.832;2022-12-22T06:39:31;99149.56;;;7.02;100.00
51849;BME280;38952;51.090;-1.832;2022-12-22T06:41:58;99149.84;;;7.11;100.00
51849;BME280;38952;51.090;-1.832;2022-12-22T06:44:45;99138.16;;;7.10;100.00
51849;BME280;38952;51.090;-1.832;2022-12-22T06:47:19;99140.34;;;7.19;100.00
51849;BME280;38952;51.090;-1.832;2022-12-22T06:49:47;99135.16;;;7.22;100.00
51849;BME280;38952;51.090;-1.832;2022-12-22T06:52:14;99136.47;;;7.30;100.00
51849;BME280;38952;51.090;-1.832;2022-12-22T06:54:40;99135.41;;;7.36;100.00
51849;BME280;38952;51.090;-1.832;2022-12-22T06:57:10;99136.44;;;7.40;100.00
51849;BME280;38952;51.090;-1.832;2022-12-22T06:59:35;99128.28;;;7.45;100.00
51849;BME280;38952;51.090;-1.832;2022-12-22T07:02:07;99120.13;;;7.50;100.00
51849;BME280;38952;51.090;-1.832;2022-12-22T07:04:33;99110.28;;;7.55;100.00
51849;BME280;38952;51.090;-1.832;2022-12-22T07:06:59;99116.53;;;7.60;100.00
51849;BME280;38952;51.090;-1.832;2022-12-22T07:09:24;99114.09;;;7.64;100.00
51849;BME280;38952;51.090;-1.832;2022-12-22T07:11:52;99113.53;;;7.67;100.00
51849;BME280;38952;51.090;-1.832;2022-12-22T07:14:24;99116.16;;;7.82;100.00
51849;BME280;38952;51.090;-1.832;2022-12-22T07:17:01;99131.63;;;7.92;100.00
51849;BME280;38952;51.090;-1.832;2022-12-22T07:19:50;99111.78;;;7.86;100.00
51849;BME280;38952;51.090;-1.832;2022-12-22T07:22:15;99122.06;;;8.00;100.00
51849;BME280;38952;51.090;-1.832;2022-12-22T07:24:41;99121.53;;;7.98;100.00
51849;BME280;38952;51.090;-1.832;2022-12-22T07:27:06;99135.31;;;8.12;100.00
51849;BME280;38952;51.090;-1.832;2022-12-22T07:29:37;99107.34;;;8.01;100.00
51849;BME280;38952;51.090;-1.832;2022-12-22T07:32:05;99131.22;;;8.19;100.00
51849;BME280;38952;51.090;-1.832;2022-12-22T07:34:30;99102.94;;;8.10;100.00
51849;BME280;38952;51.090;-1.832;2022-12-22T07:37:03;99110.06;;;8.06;100.00
51849;BME280;38952;51.090;-1.832;2022-12-22T07:39:39;99093.22;;;7.99;100.00
51849;BME280;38952;51.090;-1.832;2022-12-22T07:42:05;99111.09;;;8.10;100.00
51849;BME280;38952;51.090;-1.832;2022-12-22T07:44:49;99107.41;;;7.96;100.00
51849;BME280;38952;51.090;-1.832;2022-12-22T07:47:38;99094.88;;;7.90;100.00
51849;BME280;38952;51.090;-1.832;2022-12-22T07:50:19;99082.41;;;7.83;100.00
51849;BME280;38952;51.090;-1.832;2022-12-22T07:53:03;99068.53;;;7.85;100.00
51849;BME280;38952;51.090;-1.832;2022-12-22T07:55:34;99083.69;;;7.96;100.00
51849;BME280;38952;51.090;-1.832;2022-12-22T07:58:00;99080.97;;;7.96;100.00
51849;BME280;38952;51.090;-1.832;2022-12-22T08:00:33;99071.50;;;7.89;100.00
51849;BME280;38952;51.090;-1.832;2022-12-22T08:03:21;99080.13;;;8.01;100.00
51849;BME280;38952;51.090;-1.832;2022-12-22T08:05:46;99098.31;;;8.11;100.00
51849;BME280;38952;51.090;-1.832;2022-12-22T08:08:11;99092.31;;;8.14;100.00
51849;BME280;38952;51.090;-1.832;2022-12-22T08:10:37;99087.16;;;8.12;100.00
51849;BME280;38952;51.090;-1.832;2022-12-22T08:13:05;99098.28;;;8.16;100.00
51849;BME280;38952;51.090;-1.832;2022-12-22T08:18:57;99097.22;;;8.12;100.00
51849;BME280;38952;51.090;-1.832;2022-12-22T08:21:22;99116.47;;;8.20;100.00
51849;BME280;38952;51.090;-1.832;2022-12-22T08:27:51;99129.72;;;8.43;100.00
51849;BME280;38952;51.090;-1.832;2022-12-22T08:31:33;99140.31;;;8.49;100.00
51849;BME280;38952;51.090;-1.832;2022-12-22T08:34:31;99117.47;;;8.40;100.00
51849;BME280;38952;51.090;-1.832;2022-12-22T08:47:31;99122.19;;;8.69;100.00
51849;BME280;38952;51.090;-1.832;2022-12-22T08:50:10;99129.72;;;8.77;100.00
51849;BME280;38952;51.090;-1.832;2022-12-22T08:52:35;99119.38;;;8.79;100.00
51849;BME280;38952;51.090;-1.832;2022-12-22T08:58:04;99112.47;;;8.87;100.00
51849;BME280;38952;51.090;-1.832;2022-12-22T09:00:43;99117.06;;;8.91;100.00
51849;BME280;38952;51.090;-1.832;2022-12-22T09:03:22;99119.13;;;9.05;100.00
51849;BME280;38952;51.090;-1.832;2022-12-22T09:06:37;99093.00;;;8.99;100.00
51849;BME280;38952;51.090;-1.832;2022-12-22T09:23:56;99107.59;;;9.37;100.00
51849;BME280;38952;51.090;-1.832;2022-12-22T09:29:57;99083.56;;;9.39;100.00
51849;BME280;38952;51.090;-1.832;2022-12-22T09:32:26;99078.88;;;9.45;100.00
51849;BME280;38952;51.090;-1.832;2022-12-22T09:35:02;99111.88;;;9.68;100.00
51849;BME280;38952;51.090;-1.832;2022-12-22T09:38:22;99091.28;;;9.56;100.00
51849;BME280;38952;51.090;-1.832;2022-12-22T09:51:25;99110.84;;;9.83;100.00
51849;BME280;38952;51.090;-1.832;2022-12-22T10:11:58;99134.22;;;10.32;100.00
51849;BME280;38952;51.090;-1.832;2022-12-22T12:38:28;98985.66;;;11.44;100.00
51849;BME280;38952;51.090;-1.832;2022-12-22T12:41:23;98998.13;;;11.37;100.00
51849;BME280;38952;51.090;-1.832;2022-12-22T12:44:13;98965.13;;;11.19;100.00
51849;BME280;38952;51.090;-1.832;2022-12-22T12:46:55;98969.69;;;11.10;100.00
51849;BME280;38952;51.090;-1.832;2022-12-22T13:21:39;98991.66;;;11.05;100.00
51849;BME280;38952;51.090;-1.832;2022-12-22T14:15:36;98949.94;;;11.86;100.00
51849;BME280;38952;51.090;-1.832;2022-12-22T14:18:42;98966.56;;;11.90;100.00
51849;BME280;38952;51.090;-1.832;2022-12-22T14:21:20;98957.03;;;11.87;100.00
51849;BME280;38952;51.090;-1.832;2022-12-22T14:23:45;98973.47;;;11.87;100.00
51849;BME280;38952;51.090;-1.832;2022-12-22T14:26:24;98966.00;;;11.79;100.00
51849;BME280;38952;51.090;-1.832;2022-12-22T14:29:01;98971.19;;;11.66;100.00
51849;BME280;38952;51.090;-1.832;2022-12-22T14:31:58;98963.84;;;11.53;100.00
51849;BME280;38952;51.090;-1.832;2022-12-22T14:34:33;98975.41;;;11.50;100.00
51849;BME280;38952;51.090;-1.832;2022-12-22T14:37:02;98971.16;;;11.44;100.00
51849;BME280;38952;51.090;-1.832;2022-12-22T14:39:31;98971.16;;;11.44;100.00
51849;BME280;38952;51.090;-1.832;2022-12-22T14:42:14;98969.34;;;11.39;100.00
51849;BME280;38952;51.090;-1.832;2022-12-22T14:44:50;98964.84;;;11.43;100.00
51849;BME280;38952;51.090;-1.832;2022-12-22T14:47:28;98974.91;;;11.48;100.00
51849;BME280;38952;51.090;-1.832;2022-12-22T14:50:29;98970.38;;;11.29;100.00
51849;BME280;38952;51.090;-1.832;2022-12-22T14:53:12;98976.34;;;11.31;100.00
51849;BME280;38952;51.090;-1.832;2022-12-22T14:56:09;98979.19;;;11.26;100.00
51849;BME280;38952;51.090;-1.832;2022-12-22T14:59:08;98980.13;;;11.22;100.00
51849;BME280;38952;51.090;-1.832;2022-12-22T15:01:34;98977.78;;;11.15;100.00
51849;BME280;38952;51.090;-1.832;2022-12-22T15:10:04;98986.41;;;11.08;100.00
51849;BME280;38952;51.090;-1.832;2022-12-22T15:12:30;98985.88;;;11.06;100.00
51849;BME280;38952;51.090;-1.832;2022-12-22T15:18:34;98982.34;;;10.92;100.00
51849;BME280;38952;51.090;-1.832;2022-12-22T15:32:09;98976.88;;;10.92;100.00
51849;BME280;38952;51.090;-1.832;2022-12-22T15:39:13;98995.13;;;11.10;100.00
51849;BME280;38952;51.090;-1.832;2022-12-22T15:41:46;98980.22;;;11.03;100.00
51849;BME280;38952;51.090;-1.832;2022-12-22T15:44:31;98999.19;;;11.13;100.00
51849;BME280;38952;51.090;-1.832;2022-12-22T15:49:58;99003.94;;;11.07;100.00
51849;BME280;38952;51.090;-1.832;2022-12-22T15:52:30;98991.88;;;10.94;100.00
51849;BME280;38952;51.090;-1.832;2022-12-22T15:55:17;98990.84;;;10.90;100.00
51849;BME280;38952;51.090;-1.832;2022-12-22T16:01:00;99011.72;;;10.86;100.00
51849;BME280;38952;51.090;-1.832;2022-12-22T16:03:36;99009.88;;;10.81;100.00
51849;BME280;38952;51.090;-1.832;2022-12-22T16:06:03;99028.31;;;10.76;100.00
51849;BME280;38952;51.090;-1.832;2022-12-22T16:09:11;99028.72;;;10.69;100.00
51849;BME280;38952;51.090;-1.832;2022-12-22T16:21:21;99059.69;;;10.64;100.00
51849;BME280;38952;51.090;-1.832;2022-12-22T16:28:09;99065.34;;;10.54;100.00
51849;BME280;38952;51.090;-1.832;2022-12-22T16:31:22;99059.75;;;10.45;100.00
51849;BME280;38952;51.090;-1.832;2022-12-22T16:34:31;99089.41;;;10.52;100.00
51849;BME280;38952;51.090;-1.832;2022-12-22T16:37:25;99079.31;;;10.34;100.00
51849;BME280;38952;51.090;-1.832;2022-12-22T16:39:58;99081.28;;;10.28;100.00
51849;BME280;38952;51.090;-1.832;2022-12-22T16:42:46;99097.34;;;10.35;100.00
51849;BME280;38952;51.090;-1.832;2022-12-22T16:45:26;99084.22;;;10.31;100.00
51849;BME280;38952;51.090;-1.832;2022-12-22T16:47:54;99089.06;;;10.40;100.00
51849;BME280;38952;51.090;-1.832;2022-12-22T16:50:25;99084.69;;;10.39;100.00
51849;BME280;38952;51.090;-1.832;2022-12-22T16:52:56;99085.13;;;10.46;100.00
51849;BME280;38952;51.090;-1.832;2022-12-22T16:55:23;99083.06;;;10.38;100.00
51849;BME280;38952;51.090;-1.832;2022-12-22T16:57:48;99102.34;;;10.46;100.00
51849;BME280;38952;51.090;-1.832;2022-12-22T17:00:16;99097.25;;;10.40;100.00
51849;BME280;38952;51.090;-1.832;2022-12-22T17:02:45;99095.03;;;10.42;100.00
51849;BME280;38952;51.090;-1.832;2022-12-22T17:07:49;99095.69;;;10.34;100.00
51849;BME280;38952;51.090;-1.832;2022-12-22T17:10:24;99104.34;;;10.41;100.00
51849;BME280;38952;51.090;-1.832;2022-12-22T17:12:54;99103.34;;;10.37;100.00
51849;BME280;38952;51.090;-1.832;2022-12-22T17:15:26;99111.00;;;10.35;100.00
51849;BME280;38952;51.090;-1.832;2022-12-22T17:17:54;99101.59;;;10.22;100.00
51849;BME280;38952;51.090;-1.832;2022-12-22T17:20:22;99106.91;;;10.32;100.00
51849;BME280;38952;51.090;-1.832;2022-12-22T17:22:58;99094.72;;;10.24;100.00
51849;BME280;38952;51.090;-1.832;2022-12-22T17:25:29;99098.25;;;10.25;100.00
51849;BME280;38952;51.090;-1.832;2022-12-22T17:28:00;99096.06;;;10.08;100.00
51849;BME280;38952;51.090;-1.832;2022-12-22T17:30:54;99083.78;;;9.86;100.00
51849;BME280;38952;51.090;-1.832;2022-12-22T17:33:26;99097.16;;;9.88;100.00
51849;BME280;38952;51.090;-1.832;2022-12-22T17:35:52;99118.31;;;9.77;100.00
51849;BME280;38952;51.090;-1.832;2022-12-22T17:38:22;99122.16;;;9.76;100.00
51849;BME280;38952;51.090;-1.832;2022-12-22T17:40:53;99117.78;;;9.75;100.00
51849;BME280;38952;51.090;-1.832;2022-12-22T17:43:21;99131.44;;;9.75;100.00
51849;BME280;38952;51.090;-1.832;2022-12-22T17:45:49;99131.56;;;9.65;100.00
51849;BME280;38952;51.090;-1.832;2022-12-22T17:48:15;99138.34;;;9.43;100.00
51849;BME280;38952;51.090;-1.832;2022-12-22T17:58:39;99149.19;;;9.24;100.00
51849;BME280;38952;51.090;-1.832;2022-12-22T18:01:39;99149.50;;;9.22;100.00
51849;BME280;38952;51.090;-1.832;2022-12-22T18:19:00;99127.44;;;9.43;100.00
51849;BME280;38952;51.090;-1.832;2022-12-22T18:25:49;99160.88;;;9.78;100.00
51849;BME280;38952;51.090;-1.832;2022-12-22T18:28:53;99158.09;;;9.83;100.00
51849;BME280;38952;51.090;-1.832;2022-12-22T18:35:00;99152.00;;;9.67;100.00
51849;BME280;38952;51.090;-1.832;2022-12-22T18:37:46;99170.13;;;9.82;100.00
51849;BME280;38952;51.090;-1.832;2022-12-22T18:40:38;99174.50;;;9.83;100.00
51849;BME280;38952;51.090;-1.832;2022-12-22T18:43:43;99157.69;;;9.71;100.00
51849;BME280;38952;51.090;-1.832;2022-12-22T18:49:52;99163.63;;;9.78;100.00
51849;BME280;38952;51.090;-1.832;2022-12-22T18:52:30;99160.97;;;9.73;100.00
51849;BME280;38952;51.090;-1.832;2022-12-22T19:15:31;99188.63;;;9.07;100.00
51849;BME280;38952;51.090;-1.832;2022-12-22T19:52:35;99198.09;;;9.44;100.00
51849;BME280;38952;51.090;-1.832;2022-12-22T19:55:27;99217.38;;;9.53;100.00
51849;BME280;38952;51.090;-1.832;2022-12-22T19:58:36;99208.41;;;9.53;100.00
51849;BME280;38952;51.090;-1.832;2022-12-22T20:01:07;99198.28;;;9.53;100.00
51849;BME280;38952;51.090;-1.832;2022-12-22T20:03:39;99212.97;;;9.57;100.00
51849;BME280;38952;51.090;-1.832;2022-12-22T20:06:04;99210.25;;;9.57;100.00
51849;BME280;38952;51.090;-1.832;2022-12-22T20:21:09;99229.06;;;9.30;100.00
51849;BME280;38952;51.090;-1.832;2022-12-22T20:23:37;99228.50;;;9.33;100.00
51849;BME280;38952;51.090;-1.832;2022-12-22T20:26:13;99239.66;;;9.36;100.00
51849;BME280;38952;51.090;-1.832;2022-12-22T20:28:39;99242.97;;;9.33;100.00
51849;BME280;38952;51.090;-1.832;2022-12-22T20:31:12;99249.25;;;9.29;100.00
51849;BME280;38952;51.090;-1.832;2022-12-22T20:33:50;99257.41;;;9.34;100.00
51849;BME280;38952;51.090;-1.832;2022-12-22T20:38:58;99241.13;;;9.23;100.00
51849;BME280;38952;51.090;-1.832;2022-12-22T20:41:29;99249.81;;;9.31;100.00
51849;BME280;38952;51.090;-1.832;2022-12-22T20:43:57;99233.72;;;9.29;100.00
51849;BME280;38952;51.090;-1.832;2022-12-22T20:46:27;99251.88;;;9.44;100.00
51849;BME280;38952;51.090;-1.832;2022-12-22T20:48:57;99255.59;;;9.53;100.00
51849;BME280;38952;51.090;-1.832;2022-12-22T20:51:26;99246.88;;;9.51;100.00
51849;BME280;38952;51.090;-1.832;2022-12-22T20:53:53;99244.16;;;9.51;100.00
51849;BME280;38952;51.090;-1.832;2022-12-22T20:56:32;99263.22;;;9.56;100.00
51849;BME280;38952;51.090;-1.832;2022-12-22T20:59:26;99250.81;;;9.40;100.00
51849;BME280;38952;51.090;-1.832;2022-12-22T21:01:53;99267.75;;;9.37;100.00
51849;BME280;38952;51.090;-1.832;2022-12-22T21:04:19;99258.56;;;9.28;100.00
51849;BME280;38952;51.090;-1.832;2022-12-22T21:12:48;99267.94;;;9.16;100.00
51849;BME280;38952;51.090;-1.832;2022-12-22T21:15:37;99270.69;;;9.11;100.00
51849;BME280;38952;51.090;-1.832;2022-12-22T21:18:47;99264.22;;;9.02;100.00
51849;BME280;38952;51.090;-1.832;2022-12-22T21:21:33;99285.94;;;9.12;100.00
51849;BME280;38952;51.090;-1.832;2022-12-22T21:27:26;99310.97;;;9.24;100.00
51849;BME280;38952;51.090;-1.832;2022-12-22T21:29:56;99320.75;;;9.25;100.00
51849;BME280;38952;51.090;-1.832;2022-12-22T21:32:50;99307.19;;;9.20;100.00
51849;BME280;38952;51.090;-1.832;2022-12-22T21:35:25;99309.84;;;9.25;100.00